createdAt,value
2022-09-13T00:01:29.520Z,15.90
2022-09-13T00:03:56.407Z,14.70
2022-09-13T00:06:23.263Z,14.70
2022-09-13T00:08:50.259Z,15.40
2022-09-13T00:11:19.085Z,17.10
2022-09-13T00:13:46.059Z,16.50
2022-09-13T00:16:14.378Z,16.60
2022-09-13T00:18:41.579Z,15.90
2022-09-13T00:21:10.178Z,16.80
2022-09-13T00:23:37.349Z,16.30
2022-09-13T00:26:05.969Z,14.60
2022-09-13T00:28:32.859Z,14.60
2022-09-13T00:31:01.721Z,14.60
2022-09-13T00:33:28.602Z,16.70
2022-09-13T00:35:55.472Z,16.10
2022-09-13T00:38:22.744Z,14.90
2022-09-13T00:40:49.720Z,14.60
2022-09-13T00:43:18.492Z,14.40
2022-09-13T00:45:45.744Z,16.60
2022-09-13T00:48:20.543Z,14.60
2022-09-13T00:50:54.595Z,14.40
2022-09-13T00:53:26.796Z,16.70
2022-09-13T00:55:55.021Z,15.60
2022-09-13T00:58:23.143Z,16.10
2022-09-13T01:00:50.032Z,16.10
2022-09-13T01:03:17.573Z,15.60
2022-09-13T01:05:47.371Z,14.50
2022-09-13T01:08:22.468Z,14.20
2022-09-13T01:10:52.600Z,14.10
2022-09-13T01:13:23.709Z,14.10
2022-09-13T01:15:50.578Z,14.10
2022-09-13T01:18:17.466Z,14.50
2022-09-13T01:21:25.945Z,15.60
2022-09-13T01:24:20.619Z,14.00
2022-09-13T01:27:13.509Z,14.00
2022-09-13T01:29:58.532Z,14.00
2022-09-13T01:32:58.042Z,13.90
2022-09-13T01:35:35.743Z,14.00
2022-09-13T01:38:03.181Z,16.20
2022-09-13T01:40:51.408Z,16.00
2022-09-13T01:43:29.653Z,13.90
2022-09-13T01:46:01.487Z,13.90
2022-09-13T01:48:47.347Z,15.00
2022-09-13T01:51:47.210Z,13.90
2022-09-13T01:54:42.144Z,13.90
2022-09-13T01:57:24.364Z,13.90
2022-09-13T01:59:53.892Z,13.90
2022-09-13T02:02:34.017Z,15.00
2022-09-13T02:05:18.940Z,15.20
2022-09-13T02:07:50.835Z,13.90
2022-09-13T02:10:51.271Z,14.30
2022-09-13T02:13:20.448Z,13.90
2022-09-13T02:15:48.775Z,15.10
2022-09-13T02:18:30.800Z,14.10
2022-09-13T02:21:00.622Z,13.90
2022-09-13T02:23:32.765Z,13.90
2022-09-13T02:25:59.725Z,15.60
2022-09-13T02:28:38.762Z,14.70
2022-09-13T02:31:07.124Z,13.90
2022-09-13T02:33:39.139Z,13.90
2022-09-13T02:36:10.407Z,14.60
2022-09-13T02:38:56.025Z,13.90
2022-09-13T02:41:25.643Z,15.40
2022-09-13T02:43:55.920Z,15.10
2022-09-13T02:46:34.713Z,13.90
2022-09-13T02:49:13.263Z,13.90
2022-09-13T02:52:17.743Z,13.90
2022-09-13T02:54:48.481Z,13.90
2022-09-13T02:57:20.802Z,14.60
2022-09-13T02:59:48.423Z,13.90
2022-09-13T03:02:17.101Z,14.00
2022-09-13T03:04:43.999Z,14.70
2022-09-13T03:07:14.325Z,13.90
2022-09-13T03:09:49.142Z,14.00
2022-09-13T03:12:34.816Z,13.90
2022-09-13T03:15:23.604Z,13.90
2022-09-13T03:18:05.511Z,13.90
2022-09-13T03:20:55.585Z,13.90
2022-09-13T03:23:22.457Z,14.00
2022-09-13T03:26:25.422Z,13.90
2022-09-13T03:28:58.459Z,14.00
2022-09-13T03:31:33.341Z,14.80
2022-09-13T03:34:13.916Z,14.00
2022-09-13T03:36:56.429Z,13.90
2022-09-13T03:39:42.774Z,15.70
2022-09-13T03:42:30.607Z,13.80
2022-09-13T03:44:57.445Z,14.40
2022-09-13T03:47:25.863Z,15.70
2022-09-13T03:49:53.192Z,15.80
2022-09-13T03:52:20.089Z,14.50
2022-09-13T03:54:46.947Z,13.70
2022-09-13T03:57:21.098Z,14.50
2022-09-13T03:59:52.830Z,13.80
2022-09-13T04:02:20.224Z,15.50
2022-09-13T04:04:47.457Z,13.80
2022-09-13T04:07:24.591Z,13.70
2022-09-13T04:09:51.560Z,15.50
2022-09-13T04:12:18.533Z,14.40
2022-09-13T04:14:45.411Z,15.70
2022-09-13T04:17:13.108Z,15.10
2022-09-13T04:19:40.455Z,13.70
2022-09-13T04:22:07.482Z,13.80
2022-09-13T04:24:34.355Z,13.80
2022-09-13T04:27:01.203Z,14.30
2022-09-13T04:29:28.936Z,15.20
2022-09-13T04:31:56.098Z,13.80
2022-09-13T04:34:23.287Z,14.50
2022-09-13T04:36:51.067Z,13.90
2022-09-13T04:39:18.177Z,14.10
2022-09-13T04:41:46.193Z,16.00
2022-09-13T04:44:13.421Z,16.10
2022-09-13T04:46:40.204Z,16.30
2022-09-13T04:49:07.255Z,13.80
2022-09-13T04:51:34.059Z,14.30
2022-09-13T04:54:01.001Z,14.40
2022-09-13T04:56:27.945Z,14.30
2022-09-13T04:58:55.505Z,15.40
2022-09-13T05:01:27.078Z,15.90
2022-09-13T05:03:54.968Z,15.90
2022-09-13T05:06:22.752Z,15.80
2022-09-13T05:08:55.211Z,13.90
2022-09-13T05:11:23.055Z,13.90
2022-09-13T05:13:55.309Z,15.80
2022-09-13T05:16:23.149Z,15.60
2022-09-13T05:18:50.302Z,13.90
2022-09-13T05:21:17.225Z,15.40
2022-09-13T05:23:44.348Z,15.70
2022-09-13T05:26:11.180Z,14.00
2022-09-13T05:28:38.370Z,14.00
2022-09-13T05:31:12.605Z,14.10
2022-09-13T05:33:39.519Z,14.10
2022-09-13T05:36:06.586Z,14.50
2022-09-13T05:38:33.743Z,14.10
2022-09-13T05:41:01.944Z,16.00
2022-09-13T05:43:30.429Z,16.30
2022-09-13T05:46:07.648Z,14.70
2022-09-13T05:48:34.936Z,14.20
2022-09-13T05:51:21.368Z,14.20
2022-09-13T05:53:49.764Z,14.20
2022-09-13T05:56:21.394Z,16.30
2022-09-13T05:58:49.082Z,15.20
2022-09-13T06:01:17.495Z,15.30
2022-09-13T06:03:46.761Z,14.30
2022-09-13T06:06:13.647Z,14.40
2022-09-13T06:08:40.532Z,14.40
2022-09-13T06:11:08.833Z,14.40
2022-09-13T06:13:35.985Z,14.50
2022-09-13T06:16:04.001Z,14.50
2022-09-13T06:18:30.962Z,14.60
2022-09-13T06:20:59.998Z,15.90
2022-09-13T06:23:28.154Z,14.70
2022-09-13T06:26:05.301Z,15.50
2022-09-13T06:28:36.683Z,14.80
2022-09-13T06:31:06.419Z,14.80
2022-09-13T06:33:36.373Z,17.30
2022-09-13T06:36:04.197Z,15.10
2022-09-13T06:38:30.997Z,15.70
2022-09-13T06:41:10.933Z,15.20
2022-09-13T06:43:38.152Z,15.30
2022-09-13T06:46:06.989Z,15.50
2022-09-13T06:48:34.647Z,15.50
2022-09-13T06:51:02.245Z,15.70
2022-09-13T06:53:29.380Z,15.90
2022-09-13T06:56:19.175Z,16.00
2022-09-13T06:58:47.071Z,16.20
2022-09-13T07:01:18.342Z,16.70
2022-09-13T07:03:46.863Z,16.50
2022-09-13T07:06:21.981Z,16.70
2022-09-13T07:08:50.281Z,17.00
2022-09-13T07:11:18.469Z,17.20
2022-09-13T07:13:49.825Z,19.20
2022-09-13T07:16:16.816Z,17.50
2022-09-13T07:18:43.667Z,19.90
2022-09-13T07:21:11.087Z,18.80
2022-09-13T07:23:38.836Z,18.70
2022-09-13T07:26:06.755Z,19.70
2022-09-13T07:28:38.325Z,20.00
2022-09-13T07:31:10.700Z,18.50
2022-09-13T07:33:38.520Z,19.80
2022-09-13T07:36:06.742Z,19.00
2022-09-13T07:38:37.818Z,19.30
2022-09-13T07:41:06.684Z,21.10
2022-09-13T07:43:36.851Z,19.60
2022-09-13T07:46:11.002Z,20.70
2022-09-13T07:48:39.855Z,19.70
2022-09-13T07:51:09.800Z,20.80
2022-09-13T07:53:37.245Z,20.80
2022-09-13T07:56:11.391Z,19.70
2022-09-13T07:58:38.889Z,19.70
2022-09-13T08:01:15.976Z,20.10
2022-09-13T08:03:42.889Z,19.80
2022-09-13T08:06:09.947Z,20.20
2022-09-13T08:08:37.245Z,20.10
2022-09-13T08:11:05.455Z,20.30
2022-09-13T08:13:34.987Z,20.50
2022-09-13T08:16:05.759Z,20.60
2022-09-13T08:18:33.110Z,20.80
2022-09-13T08:21:00.502Z,21.00
2022-09-13T08:23:27.336Z,22.60
2022-09-13T08:25:54.137Z,23.20
2022-09-13T08:28:27.644Z,21.70
2022-09-13T08:30:54.711Z,21.80
2022-09-13T08:33:21.540Z,22.10
2022-09-13T08:35:52.656Z,21.90
2022-09-13T08:38:19.780Z,22.10
2022-09-13T08:40:55.689Z,22.20
2022-09-13T08:43:40.760Z,22.40
2022-09-13T08:46:22.722Z,22.50
2022-09-13T08:48:50.898Z,22.60
2022-09-13T08:51:49.627Z,22.70
2022-09-13T08:54:17.200Z,22.90
2022-09-13T08:57:07.247Z,23.20
2022-09-13T09:00:01.566Z,23.30
2022-09-13T09:03:08.724Z,23.60
2022-09-13T09:05:50.340Z,23.80
2022-09-13T09:08:43.292Z,24.00
2022-09-13T09:11:20.843Z,24.20
2022-09-13T09:14:15.207Z,24.30
2022-09-13T09:16:45.853Z,24.40
2022-09-13T09:19:25.337Z,24.60
2022-09-13T09:21:52.270Z,24.80
2022-09-13T09:24:25.658Z,24.90
2022-09-13T09:26:58.721Z,25.10
2022-09-13T09:29:28.141Z,25.20
2022-09-13T09:32:32.676Z,25.30
2022-09-13T09:35:27.439Z,25.50
2022-09-13T09:38:21.655Z,25.60
2022-09-13T09:40:48.469Z,25.70
2022-09-13T09:43:24.309Z,25.90
2022-09-13T09:45:52.809Z,26.00
2022-09-13T09:48:22.348Z,26.10
2022-09-13T09:50:51.402Z,26.10
2022-09-13T09:53:27.153Z,26.20
2022-09-13T09:56:04.120Z,26.30
2022-09-13T09:58:45.248Z,26.40
2022-09-13T10:01:20.557Z,26.40
2022-09-13T10:04:16.563Z,26.60
2022-09-13T10:06:43.553Z,26.70
2022-09-13T10:09:13.126Z,26.90
2022-09-13T10:11:42.960Z,27.00
2022-09-13T10:14:27.554Z,27.10
2022-09-13T10:17:06.549Z,27.20
2022-09-13T10:19:33.379Z,27.20
2022-09-13T10:22:02.058Z,27.20
2022-09-13T10:24:29.651Z,27.20
2022-09-13T10:26:57.194Z,27.20
2022-09-13T10:29:24.014Z,27.20
2022-09-13T10:31:53.431Z,27.20
2022-09-13T10:34:22.290Z,27.10
2022-09-13T10:37:19.329Z,27.00
2022-09-13T10:40:09.204Z,27.10
2022-09-13T10:42:36.164Z,27.10
2022-09-13T10:45:07.090Z,27.20
2022-09-13T10:47:44.398Z,27.20
2022-09-13T10:50:31.573Z,27.30
2022-09-13T10:52:59.300Z,27.40
2022-09-13T10:55:34.057Z,27.40
2022-09-13T10:58:06.830Z,27.40
2022-09-13T11:00:42.614Z,27.50
2022-09-13T11:03:31.402Z,27.40
2022-09-13T11:06:16.145Z,27.30
2022-09-13T11:09:01.247Z,27.20
2022-09-13T11:11:48.354Z,27.10
2022-09-13T11:14:24.005Z,27.10
2022-09-13T11:17:06.950Z,27.00
2022-09-13T11:20:05.798Z,27.10
2022-09-13T11:23:07.402Z,27.10
2022-09-13T11:25:44.055Z,27.60
2022-09-13T11:28:26.216Z,27.10
2022-09-13T11:31:09.830Z,27.10
2022-09-13T11:33:59.326Z,27.10
2022-09-13T11:36:52.511Z,27.20
2022-09-13T11:39:49.099Z,27.20
2022-09-13T11:42:18.812Z,27.30
2022-09-13T11:44:51.951Z,27.30
2022-09-13T11:47:18.839Z,27.40
2022-09-13T11:50:03.959Z,27.50
2022-09-13T11:52:56.320Z,27.50
2022-09-13T11:55:30.616Z,27.60
2022-09-13T11:57:59.432Z,27.70
2022-09-13T12:00:32.092Z,27.70
2022-09-13T12:03:06.753Z,27.80
2022-09-13T12:05:44.085Z,27.80
2022-09-13T12:08:20.147Z,27.90
2022-09-13T12:10:55.261Z,28.00
2022-09-13T12:13:23.916Z,27.90
2022-09-13T12:15:56.412Z,27.90
2022-09-13T12:18:36.594Z,27.90
2022-09-13T12:21:09.001Z,27.90
2022-09-13T12:23:42.726Z,27.90
2022-09-13T12:26:10.871Z,27.90
2022-09-13T12:28:51.525Z,27.90
2022-09-13T12:31:28.554Z,27.80
2022-09-13T12:33:57.978Z,27.70
2022-09-13T12:36:37.057Z,27.60
2022-09-13T12:39:31.612Z,27.50
2022-09-13T12:42:01.934Z,27.30
2022-09-13T12:44:34.934Z,27.30
2022-09-13T12:47:23.232Z,27.30
2022-09-13T12:49:52.803Z,27.30
2022-09-13T12:52:39.508Z,27.20
2022-09-13T12:55:48.590Z,27.20
2022-09-13T12:58:35.727Z,27.20
2022-09-13T13:01:17.217Z,27.20
2022-09-13T13:03:55.326Z,27.20
2022-09-13T13:06:57.746Z,27.20
2022-09-13T13:09:44.503Z,27.20
2022-09-13T13:12:34.921Z,27.20
2022-09-13T13:15:04.650Z,27.20
2022-09-13T13:17:34.468Z,27.10
2022-09-13T13:20:21.423Z,27.00
2022-09-13T13:22:49.600Z,26.90
2022-09-13T13:25:39.005Z,26.90
2022-09-13T13:28:47.737Z,26.80
2022-09-13T13:31:32.727Z,26.80
2022-09-13T13:34:02.679Z,26.80
2022-09-13T13:36:42.521Z,26.70
2022-09-13T13:39:12.382Z,26.70
2022-09-13T13:41:43.530Z,26.70
2022-09-13T13:44:19.803Z,26.70
2022-09-13T13:46:52.662Z,26.70
2022-09-13T13:49:31.805Z,26.80
2022-09-13T13:52:25.120Z,26.70
2022-09-13T13:54:55.367Z,26.70
2022-09-13T13:57:38.994Z,26.70
2022-09-13T14:00:13.578Z,26.90
2022-09-13T14:02:46.141Z,27.10
2022-09-13T14:05:34.198Z,27.20
2022-09-13T14:08:37.408Z,27.40
2022-09-13T14:11:14.362Z,27.50
2022-09-13T14:13:54.189Z,27.60
2022-09-13T14:16:53.097Z,27.80
2022-09-13T14:19:42.556Z,27.90
2022-09-13T14:22:19.737Z,28.00
2022-09-13T14:24:48.894Z,27.80
2022-09-13T14:27:22.774Z,27.60
2022-09-13T14:29:54.697Z,27.50
2022-09-13T14:32:23.311Z,27.40
2022-09-13T14:34:59.805Z,27.20
2022-09-13T14:37:34.579Z,27.00
2022-09-13T14:40:11.047Z,26.90
2022-09-13T14:42:48.532Z,26.70
2022-09-13T14:45:19.430Z,26.50
2022-09-13T14:48:08.676Z,26.40
2022-09-13T14:50:38.074Z,26.30
2022-09-13T14:53:12.326Z,26.10
2022-09-13T14:55:45.838Z,26.00
2022-09-13T14:58:19.823Z,25.80
2022-09-13T15:00:50.823Z,25.70
2022-09-13T15:03:18.276Z,25.60
2022-09-13T15:05:57.538Z,25.50
2022-09-13T15:08:45.193Z,25.30
2022-09-13T15:11:15.295Z,25.20
2022-09-13T15:13:42.946Z,25.10
2022-09-13T15:16:27.553Z,25.00
2022-09-13T15:19:35.689Z,24.90
2022-09-13T15:22:14.724Z,24.80
2022-09-13T15:25:00.387Z,24.70
2022-09-13T15:27:30.830Z,24.70
2022-09-13T15:30:05.962Z,24.60
2022-09-13T15:32:41.585Z,24.70
2022-09-13T15:35:38.842Z,25.10
2022-09-13T15:38:18.003Z,25.60
2022-09-13T15:40:46.604Z,25.80
2022-09-13T15:43:13.473Z,25.80
2022-09-13T15:45:40.291Z,25.90
2022-09-13T15:48:07.620Z,26.00
2022-09-13T15:50:36.989Z,26.00
2022-09-13T15:53:06.054Z,26.00
2022-09-13T15:55:32.883Z,25.90
2022-09-13T15:57:59.696Z,25.80
2022-09-13T16:00:28.229Z,25.70
2022-09-13T16:02:55.303Z,25.50
2022-09-13T16:05:22.136Z,25.40
2022-09-13T16:07:48.936Z,25.20
2022-09-13T16:10:20.222Z,25.10
2022-09-13T16:12:47.220Z,25.00
2022-09-13T16:15:14.453Z,24.80
2022-09-13T16:17:41.503Z,24.60
2022-09-13T16:20:14.506Z,24.40
2022-09-13T16:22:41.521Z,24.30
2022-09-13T16:25:09.701Z,24.20
2022-09-13T16:27:36.615Z,24.00
2022-09-13T16:30:04.079Z,23.90
2022-09-13T16:32:30.895Z,23.80
2022-09-13T16:34:57.863Z,23.60
2022-09-13T16:37:24.787Z,23.40
2022-09-13T16:39:51.699Z,23.30
2022-09-13T16:42:18.648Z,23.20
2022-09-13T16:44:45.513Z,23.10
2022-09-13T16:47:12.379Z,23.00
2022-09-13T16:49:39.315Z,22.90
2022-09-13T16:52:06.398Z,22.70
2022-09-13T16:54:35.052Z,22.60
2022-09-13T16:57:05.522Z,22.50
2022-09-13T16:59:32.940Z,22.50
2022-09-13T17:01:59.872Z,22.40
2022-09-13T17:04:27.223Z,22.40
2022-09-13T17:06:54.294Z,22.40
2022-09-13T17:09:23.727Z,22.40
2022-09-13T17:11:50.766Z,22.40
2022-09-13T17:14:18.358Z,22.40
2022-09-13T17:16:53.233Z,22.50
2022-09-13T17:19:25.396Z,22.50
2022-09-13T17:26:11.638Z,22.70
2022-09-13T17:28:38.585Z,22.80
2022-09-13T17:31:05.764Z,22.90
2022-09-13T17:33:32.701Z,23.00
2022-09-13T17:36:00.814Z,23.00
2022-09-13T17:38:27.868Z,22.90
2022-09-13T17:41:10.896Z,23.00
2022-09-13T17:43:38.284Z,23.10
2022-09-13T17:46:11.827Z,23.20
2022-09-13T17:48:39.521Z,23.20
2022-09-13T17:51:13.965Z,23.20
2022-09-13T17:54:00.406Z,23.00
2022-09-13T17:56:32.026Z,22.90
2022-09-13T17:59:09.660Z,22.80
2022-09-13T18:01:38.110Z,22.70
2022-09-13T18:04:05.038Z,22.60
2022-09-13T18:06:31.930Z,22.50
2022-09-13T18:08:58.978Z,22.40
2022-09-13T18:11:25.921Z,22.40
2022-09-13T18:13:52.799Z,22.20
2022-09-13T18:16:24.310Z,22.10
2022-09-13T18:18:52.747Z,22.00
2022-09-13T18:21:21.156Z,22.00
2022-09-13T18:23:48.889Z,21.90
2022-09-13T18:26:17.168Z,21.90
2022-09-13T18:28:44.091Z,21.80
2022-09-13T18:31:14.353Z,21.70
2022-09-13T18:33:41.334Z,21.60
2022-09-13T18:36:10.032Z,21.50
2022-09-13T18:38:38.539Z,21.50
2022-09-13T18:41:06.533Z,21.60
2022-09-13T18:43:34.230Z,21.60
2022-09-13T18:46:04.707Z,21.70
2022-09-13T18:48:32.968Z,21.70
2022-09-13T18:51:00.641Z,21.80
2022-09-13T18:53:34.419Z,21.80
2022-09-13T18:56:03.089Z,21.70
2022-09-13T18:58:31.387Z,21.60
2022-09-13T19:01:12.551Z,21.40
2022-09-13T19:03:40.040Z,21.40
2022-09-13T19:06:11.791Z,21.40
2022-09-13T19:08:38.775Z,21.40
2022-09-13T19:11:05.793Z,21.40
2022-09-13T19:13:32.785Z,21.30
2022-09-13T19:16:05.726Z,21.20
2022-09-13T19:18:32.728Z,21.10
2022-09-13T19:21:04.114Z,21.00
2022-09-13T19:23:55.629Z,20.90
2022-09-13T19:26:22.412Z,20.80
2022-09-13T19:28:54.904Z,20.70
2022-09-13T19:31:22.674Z,20.70
2022-09-13T19:33:49.714Z,20.60
2022-09-13T19:36:19.069Z,20.60
2022-09-13T19:38:45.931Z,20.60
2022-09-13T19:41:14.319Z,20.50
2022-09-13T19:43:43.326Z,20.50
2022-09-13T19:46:11.879Z,20.40
2022-09-13T19:48:45.462Z,20.40
2022-09-13T19:51:15.086Z,20.30
2022-09-13T19:53:56.464Z,20.30
2022-09-13T19:56:32.810Z,20.20
2022-09-13T19:59:00.326Z,20.20
2022-09-13T20:01:32.330Z,20.10
2022-09-13T20:04:04.084Z,20.10
2022-09-13T20:06:41.561Z,20.10
2022-09-13T20:09:09.308Z,20.00
2022-09-13T20:11:40.069Z,20.00
2022-09-13T20:14:09.318Z,20.00
2022-09-13T20:16:37.288Z,20.00
2022-09-13T20:19:18.384Z,20.00
2022-09-13T20:21:51.847Z,20.00
2022-09-13T20:24:21.345Z,19.90
2022-09-13T20:26:49.393Z,19.90
2022-09-13T20:29:16.263Z,19.90
2022-09-13T20:31:43.109Z,19.90
2022-09-13T20:34:12.067Z,19.80
2022-09-13T20:36:38.982Z,19.80
2022-09-13T20:39:06.178Z,19.70
2022-09-13T20:41:33.114Z,19.70
2022-09-13T20:44:00.929Z,19.70
2022-09-13T20:46:29.238Z,19.70
2022-09-13T20:48:56.242Z,19.70
2022-09-13T20:51:25.388Z,19.70
2022-09-13T20:53:57.381Z,19.70
2022-09-13T20:56:24.711Z,19.60
2022-09-13T20:58:57.051Z,19.60
2022-09-13T21:01:24.803Z,19.60
2022-09-13T21:03:52.828Z,19.60
2022-09-13T21:06:20.616Z,19.60
2022-09-13T21:08:50.011Z,19.60
2022-09-13T21:11:18.757Z,19.60
2022-09-13T21:13:56.439Z,19.60
2022-09-13T21:16:24.850Z,19.60
2022-09-13T21:18:52.473Z,19.60
2022-09-13T21:21:26.808Z,19.60
2022-09-13T21:23:54.932Z,19.60
2022-09-13T21:26:24.140Z,19.60
2022-09-13T21:28:51.192Z,19.60
2022-09-13T21:31:44.650Z,19.60
2022-09-13T21:34:14.515Z,19.50
2022-09-13T21:36:41.468Z,19.50
2022-09-13T21:39:08.277Z,19.50
2022-09-13T21:41:35.204Z,19.50
2022-09-13T21:44:02.215Z,19.50
2022-09-13T21:46:34.119Z,19.50
2022-09-13T21:49:02.787Z,19.40
2022-09-13T21:51:37.350Z,19.40
2022-09-13T21:54:06.670Z,19.40
2022-09-13T21:56:35.527Z,19.40
2022-09-13T21:59:04.050Z,19.40
2022-09-13T22:01:32.677Z,19.40
2022-09-13T22:04:00.789Z,19.40
2022-09-13T22:06:32.638Z,19.40
2022-09-13T22:09:01.394Z,19.30
2022-09-13T22:11:29.919Z,19.30
2022-09-13T22:13:57.184Z,19.30
2022-09-13T22:16:28.665Z,19.30
2022-09-13T22:18:57.591Z,19.30
2022-09-13T22:21:26.211Z,19.30
2022-09-13T22:23:53.087Z,19.30
2022-09-13T22:26:30.400Z,19.30
2022-09-13T22:28:58.284Z,19.30
2022-09-13T22:31:30.151Z,19.20
2022-09-13T22:33:57.933Z,19.20
2022-09-13T22:36:24.766Z,19.20
2022-09-13T22:38:54.750Z,19.10
2022-09-13T22:41:31.900Z,19.10
2022-09-13T22:43:59.633Z,19.10
2022-09-13T22:46:30.222Z,19.10
2022-09-13T22:48:57.078Z,19.10
2022-09-13T22:51:24.111Z,19.20
2022-09-13T22:53:51.649Z,19.20
2022-09-13T22:56:26.469Z,19.70
2022-09-13T22:58:54.783Z,19.20
2022-09-13T23:01:21.727Z,19.30
2022-09-13T23:03:48.838Z,19.30
2022-09-13T23:06:18.899Z,19.30
2022-09-13T23:08:46.378Z,19.30
2022-09-13T23:11:16.769Z,19.30
2022-09-13T23:13:44.968Z,19.30
2022-09-13T23:16:36.114Z,19.30
2022-09-13T23:19:03.020Z,19.30
2022-09-13T23:21:31.497Z,19.40
2022-09-13T23:23:59.159Z,19.40
2022-09-13T23:26:26.202Z,19.40
2022-09-13T23:28:56.418Z,19.40
2022-09-13T23:31:25.081Z,19.40
2022-09-13T23:33:54.035Z,19.40
2022-09-13T23:36:23.085Z,19.40
2022-09-13T23:38:51.930Z,19.40
2022-09-13T23:41:19.080Z,19.40
2022-09-13T23:43:46.159Z,19.40
2022-09-13T23:46:13.094Z,19.40
2022-09-13T23:48:40.855Z,19.40
2022-09-13T23:51:09.132Z,19.40
2022-09-13T23:53:36.479Z,19.50
2022-09-13T23:56:04.021Z,19.50
2022-09-13T23:58:32.087Z,19.50
